Time;durP1;ratioP1;P1;durP2;ratioP2;P2;SDS_P1;SDS_P2;PMS_P1;PMS_P2;Temp;Humidity;BMP_temperature;BMP_pressure;BME280_temperature;BME280_humidity;BME280_pressure;Samples;Min_cycle;Max_cycle;Signal;HPM_P1;HPM_P2
2022/08/25 00:00:10;;;;;;;6.38;2.75;;;;;;;21.89;45.40;100489.69;5097480;27;20051;-70
2022/08/25 00:02:37;;;;;;;3.10;2.70;;;;;;;22.08;45.59;100525.75;5100376;27;20740;-69
2022/08/25 00:05:04;;;;;;;7.50;2.63;;;;;;;21.98;45.62;100510.41;5097763;28;20052;-69
2022/08/25 00:07:32;;;;;;;5.82;2.60;;;;;;;22.05;45.88;100522.34;5104793;28;20092;-69
2022/08/25 00:09:59;;;;;;;5.00;2.55;;;;;;;22.02;46.14;100513.72;5096794;27;20039;-69
2022/08/25 00:12:25;;;;;;;3.72;2.58;;;;;;;22.00;46.10;100503.06;5101282;27;20059;-69
2022/08/25 00:14:52;;;;;;;4.97;2.38;;;;;;;21.91;46.29;100498.47;5103362;28;20474;-70
2022/08/25 00:17:19;;;;;;;5.63;2.67;;;;;;;22.01;46.43;100515.56;5099366;28;20090;-69
2022/08/25 00:19:46;;;;;;;3.63;2.40;;;;;;;22.00;46.33;100513.84;5101399;28;20590;-69
2022/08/25 00:22:13;;;;;;;4.25;2.60;;;;;;;21.91;46.58;100503.00;5104208;27;20071;-69
2022/08/25 00:24:40;;;;;;;4.82;2.78;;;;;;;21.99;47.00;100519.34;5101017;28;20035;-69
2022/08/25 00:27:06;;;;;;;10.27;2.80;;;;;;;21.86;47.23;100500.78;5101457;27;20044;-69
2022/08/25 00:29:36;;;;;;;4.90;2.85;;;;;;;22.01;47.02;100509.31;5101949;28;20055;-69
2022/08/25 00:32:04;;;;;;;4.38;2.97;;;;;;;21.97;46.99;100514.09;5102077;28;20057;-69
2022/08/25 00:34:34;;;;;;;3.88;3.10;;;;;;;21.90;47.27;100521.03;5103921;28;20128;-70
2022/08/25 00:37:03;;;;;;;4.88;2.90;;;;;;;21.72;47.61;100493.09;5100297;28;20071;-69
2022/08/25 00:39:29;;;;;;;3.10;2.80;;;;;;;21.86;47.73;100516.09;5099011;28;20273;-69
2022/08/25 00:41:56;;;;;;;5.32;3.03;;;;;;;21.77;47.50;100515.06;5104819;28;20052;-71
2022/08/25 00:44:26;;;;;;;4.80;2.80;;;;;;;21.82;47.84;100526.28;5106774;28;20093;-69
2022/08/25 00:46:56;;;;;;;3.20;2.58;;;;;;;21.68;47.94;100497.06;5107972;28;20048;-69
2022/08/25 00:49:51;;;;;;;3.28;2.83;;;;;;;21.82;47.98;100523.59;5104689;27;20078;-69
2022/08/25 00:52:27;;;;;;;3.72;2.90;;;;;;;21.85;48.23;100531.41;5096201;27;20079;-69
2022/08/25 00:54:57;;;;;;;6.55;3.33;;;;;;;21.83;48.28;100525.31;5101647;28;20538;-70
2022/08/25 00:57:35;;;;;;;3.35;2.83;;;;;;;21.79;48.27;100526.56;5107995;27;20043;-71
2022/08/25 01:00:13;;;;;;;4.45;3.47;;;;;;;21.77;48.41;100525.00;5108723;28;20047;-70
2022/08/25 01:02:40;;;;;;;4.47;2.83;;;;;;;21.73;48.44;100519.03;5112190;27;20091;-71
2022/08/25 01:05:07;;;;;;;6.75;3.20;;;;;;;21.72;48.86;100530.00;5104252;27;20040;-70
2022/08/25 01:07:35;;;;;;;6.10;3.50;;;;;;;21.65;48.91;100518.91;5109119;28;20044;-70
2022/08/25 01:10:06;;;;;;;6.53;3.08;;;;;;;21.65;48.98;100521.59;5102395;28;20059;-71
2022/08/25 01:12:35;;;;;;;6.43;3.10;;;;;;;21.46;49.03;100495.47;5101577;27;20093;-71
2022/08/25 01:15:04;;;;;;;6.85;2.97;;;;;;;21.56;49.14;100520.59;5104668;27;20453;-71
2022/08/25 01:18:00;;;;;;;3.58;3.03;;;;;;;21.59;49.25;100506.81;5099455;27;20132;-71
2022/08/25 01:20:29;;;;;;;4.00;2.80;;;;;;;21.57;49.36;100502.56;5088579;27;20056;-71
2022/08/25 01:22:56;;;;;;;3.28;2.97;;;;;;;21.62;49.21;100511.94;5102122;28;20047;-71
2022/08/25 01:25:25;;;;;;;4.85;2.95;;;;;;;21.64;49.32;100509.09;5113454;27;20067;-71
2022/08/25 01:27:52;;;;;;;4.57;2.88;;;;;;;21.57;49.63;100506.09;5108530;28;20184;-70
2022/08/25 01:30:19;;;;;;;3.47;2.75;;;;;;;21.51;49.52;100500.44;5101941;27;20067;-70
2022/08/25 01:32:45;;;;;;;6.95;3.40;;;;;;;21.57;49.87;100511.50;5106339;28;20443;-70
2022/08/25 01:35:13;;;;;;;4.32;3.13;;;;;;;21.41;50.04;100505.78;5106851;28;20120;-70
2022/08/25 01:37:39;;;;;;;4.90;2.92;;;;;;;21.40;50.40;100520.28;5110528;27;20476;-71
2022/08/25 01:40:07;;;;;;;3.80;3.38;;;;;;;21.31;50.69;100524.63;5105943;27;20064;-70
2022/08/25 01:42:52;;;;;;;3.67;2.80;;;;;;;21.10;50.97;100502.28;5104667;27;20767;-70
2022/08/25 01:45:20;;;;;;;4.40;3.30;;;;;;;21.05;51.40;100492.94;5103024;27;20564;-70
2022/08/25 01:47:47;;;;;;;4.55;3.17;;;;;;;21.09;51.50;100505.13;5109871;27;20100;-71
2022/08/25 01:50:13;;;;;;;4.65;3.22;;;;;;;21.07;51.75;100510.66;5112133;27;20039;-71
2022/08/25 01:52:58;;;;;;;5.30;3.42;;;;;;;21.04;51.97;100510.91;5109259;27;20039;-71
2022/08/25 01:55:25;;;;;;;5.47;3.40;;;;;;;21.09;52.28;100519.47;5102753;27;20047;-70
2022/08/25 01:57:52;;;;;;;4.93;3.15;;;;;;;21.11;52.50;100520.13;5088104;28;20117;-70
2022/08/25 02:00:21;;;;;;;6.97;3.10;;;;;;;21.20;52.62;100526.59;5103426;28;20074;-70
2022/08/25 02:02:47;;;;;;;5.38;3.20;;;;;;;21.25;52.43;100532.44;5100699;28;20159;-70
2022/08/25 02:05:19;;;;;;;3.90;3.40;;;;;;;21.21;52.47;100517.53;5106250;27;20591;-71
2022/08/25 02:07:49;;;;;;;4.03;3.60;;;;;;;21.26;52.37;100520.66;5110259;27;20471;-68
2022/08/25 02:10:16;;;;;;;4.07;2.95;;;;;;;21.24;52.99;100522.66;5099809;28;20085;-70
2022/08/25 02:12:42;;;;;;;7.35;3.42;;;;;;;21.22;52.94;100528.16;5104364;27;20147;-68
2022/08/25 02:15:09;;;;;;;3.20;2.85;;;;;;;21.25;53.04;100527.06;5106701;27;20071;-71
2022/08/25 02:17:36;;;;;;;6.00;3.70;;;;;;;21.21;53.22;100526.47;5106535;28;20047;-69
2022/08/25 02:20:07;;;;;;;4.07;3.65;;;;;;;21.18;53.84;100518.63;5097626;27;20121;-70
2022/08/25 02:22:34;;;;;;;4.22;3.53;;;;;;;21.14;54.11;100527.94;5108260;28;20502;-70
2022/08/25 02:25:01;;;;;;;5.05;3.80;;;;;;;21.01;54.19;100503.97;5106447;27;20077;-70
2022/08/25 02:27:28;;;;;;;6.07;3.97;;;;;;;21.10;54.43;100525.66;5107752;27;20052;-69
2022/08/25 02:29:54;;;;;;;5.63;3.75;;;;;;;21.01;54.87;100516.56;5107200;27;20063;-70
2022/08/25 02:32:21;;;;;;;6.20;3.75;;;;;;;21.01;55.13;100524.66;5105760;28;20043;-70
2022/08/25 02:34:48;;;;;;;5.03;3.60;;;;;;;20.95;55.54;100512.56;5106342;28;20098;-70
2022/08/25 02:37:14;;;;;;;5.60;3.80;;;;;;;20.89;55.64;100504.19;5103794;28;20087;-70
2022/08/25 02:39:41;;;;;;;6.68;3.90;;;;;;;21.05;55.34;100525.25;5091566;27;20047;-71
2022/08/25 02:42:08;;;;;;;6.57;4.18;;;;;;;21.06;55.64;100518.88;5103193;27;20126;-70
2022/08/25 02:44:34;;;;;;;5.60;3.75;;;;;;;20.93;55.94;100506.50;5107546;27;20072;-70
2022/08/25 02:47:01;;;;;;;5.20;3.92;;;;;;;20.94;56.04;100507.31;5102359;28;20509;-70
2022/08/25 02:49:29;;;;;;;5.43;3.70;;;;;;;21.04;56.11;100523.53;5106498;27;20109;-70
2022/08/25 02:51:57;;;;;;;5.80;4.22;;;;;;;21.02;56.19;100523.66;5104240;28;20074;-70
2022/08/25 02:54:24;;;;;;;5.43;4.07;;;;;;;20.97;56.57;100515.13;5102881;28;20039;-69
2022/08/25 02:56:51;;;;;;;6.90;4.10;;;;;;;20.99;56.64;100516.72;5104096;28;20474;-70
2022/08/25 02:59:18;;;;;;;6.45;4.10;;;;;;;20.94;56.95;100513.56;5106308;28;20067;-70
2022/08/25 03:01:45;;;;;;;5.63;3.70;;;;;;;20.74;57.12;100486.72;5086990;28;20105;-70
2022/08/25 03:04:12;;;;;;;5.32;4.00;;;;;;;20.78;57.15;100494.38;5106730;28;20040;-70
2022/08/25 03:06:39;;;;;;;4.97;4.20;;;;;;;20.85;57.28;100505.44;5110165;27;20096;-70
2022/08/25 03:09:06;;;;;;;5.15;3.53;;;;;;;20.90;57.38;100505.91;5100091;27;20047;-69
2022/08/25 03:11:33;;;;;;;7.20;3.67;;;;;;;20.84;57.38;100496.53;5106280;27;20693;-70
2022/08/25 03:13:59;;;;;;;5.63;3.83;;;;;;;20.89;57.19;100506.91;5107278;27;20075;-70
2022/08/25 03:16:26;;;;;;;4.47;4.07;;;;;;;20.81;57.56;100502.16;5104724;27;20097;-70
2022/08/25 03:18:54;;;;;;;5.70;4.15;;;;;;;20.75;57.80;100486.59;5105533;28;20071;-70
2022/08/25 03:21:21;;;;;;;5.60;4.07;;;;;;;20.69;57.87;100488.94;5106770;28;20055;-69
2022/08/25 03:23:48;;;;;;;7.50;3.95;;;;;;;20.63;57.98;100483.09;5106879;27;20051;-69
2022/08/25 03:29:04;;;;;;;5.82;4.10;;;;;;;20.75;58.53;100499.19;5106310;28;20047;-70
2022/08/25 03:31:32;;;;;;;6.30;3.75;;;;;;;20.65;58.50;100486.53;5100261;27;20119;-70
2022/08/25 03:33:59;;;;;;;5.00;4.53;;;;;;;20.66;58.20;100485.53;5106588;27;20109;-69
2022/08/25 03:36:27;;;;;;;6.45;4.28;;;;;;;20.76;58.52;100495.50;5101112;28;20088;-69
2022/08/25 03:38:54;;;;;;;6.78;4.50;;;;;;;20.78;58.47;100496.22;5104784;28;20147;-70
2022/08/25 03:41:28;;;;;;;9.23;4.75;;;;;;;20.79;58.60;100488.00;5101775;28;20433;-70
2022/08/25 03:43:55;;;;;;;4.72;4.30;;;;;;;20.69;58.47;100475.50;5105320;27;20129;-70
2022/08/25 03:46:25;;;;;;;7.78;4.82;;;;;;;20.73;58.93;100490.38;5103252;27;20407;-70
2022/08/25 03:48:52;;;;;;;7.03;4.50;;;;;;;20.72;59.44;100486.84;5107211;28;20392;-70
2022/08/25 03:51:25;;;;;;;5.57;4.35;;;;;;;20.71;59.75;100493.22;5098017;27;20052;-70
2022/08/25 03:53:52;;;;;;;7.53;4.97;;;;;;;20.71;59.96;100495.06;5108423;27;20482;-70
2022/08/25 03:56:19;;;;;;;5.95;4.65;;;;;;;20.70;60.20;100490.66;5101011;27;20427;-69
2022/08/25 03:58:46;;;;;;;5.47;4.97;;;;;;;20.71;60.34;100487.84;5099404;28;20048;-70
2022/08/25 04:01:14;;;;;;;7.50;4.78;;;;;;;20.76;60.25;100492.81;5105442;27;20078;-70
2022/08/25 04:03:43;;;;;;;;;;;;;;;20.77;60.38;100495.38;5102413;28;20073;-70
2022/08/25 04:06:10;;;;;;;7.38;4.75;;;;;;;20.77;60.26;100499.91;5102532;27;20364;-70
2022/08/25 04:08:37;;;;;;;6.65;4.80;;;;;;;20.72;60.01;100486.84;5101768;28;20040;-68
2022/08/25 04:11:09;;;;;;;4.90;4.40;;;;;;;20.70;60.18;100487.97;5108035;28;20051;-70
2022/08/25 04:13:36;;;;;;;5.10;4.60;;;;;;;20.66;60.26;100485.53;5110018;27;20093;-70
2022/08/25 04:16:10;;;;;;;9.88;4.85;;;;;;;20.65;60.51;100480.28;5095541;28;20113;-70
2022/08/25 04:18:38;;;;;;;8.27;4.80;;;;;;;20.66;60.79;100477.47;5102335;27;20050;-69
2022/08/25 04:21:07;;;;;;;7.28;5.20;;;;;;;20.66;60.27;100479.31;5098271;28;20488;-70
2022/08/25 04:23:39;;;;;;;6.03;5.00;;;;;;;20.62;60.31;100484.09;5097164;28;20040;-70
2022/08/25 04:26:31;;;;;;;5.85;4.78;;;;;;;20.52;60.63;100479.66;5093552;27;20039;-70
2022/08/25 04:28:58;;;;;;;4.97;4.47;;;;;;;20.48;60.78;100483.59;5089840;28;20063;-69
2022/08/25 04:31:27;;;;;;;10.20;4.93;;;;;;;20.43;60.96;100489.41;5107881;27;20652;-69
2022/08/25 04:33:53;;;;;;;5.28;4.70;;;;;;;20.38;61.18;100486.22;5104745;28;20523;-70
2022/08/25 04:36:21;;;;;;;8.43;4.95;;;;;;;20.33;61.62;100481.22;5104734;28;21070;-69
2022/08/25 04:38:49;;;;;;;6.40;5.13;;;;;;;20.33;61.76;100485.72;5096655;28;20052;-69
2022/08/25 04:41:19;;;;;;;10.27;4.85;;;;;;;20.13;61.62;100465.09;5100559;27;20066;-69
2022/08/25 04:43:46;;;;;;;6.32;4.70;;;;;;;20.19;61.66;100486.94;5106000;28;20066;-70
2022/08/25 04:46:16;;;;;;;6.00;4.65;;;;;;;20.18;61.72;100489.75;5104780;28;20437;-71
2022/08/25 04:48:47;;;;;;;5.70;5.05;;;;;;;20.13;62.31;100484.78;5102858;28;20055;-71
2022/08/25 04:51:22;;;;;;;6.90;4.78;;;;;;;20.06;62.23;100490.78;5098014;28;20052;-69
2022/08/25 04:53:53;;;;;;;6.78;5.22;;;;;;;20.05;62.44;100492.63;5104276;28;20056;-70
2022/08/25 04:56:23;;;;;;;8.77;5.57;;;;;;;20.02;62.46;100497.41;5099379;28;20127;-71
2022/08/25 04:58:52;;;;;;;8.32;5.10;;;;;;;19.99;62.34;100503.88;5102663;28;20071;-69
2022/08/25 05:01:22;;;;;;;6.82;5.05;;;;;;;19.96;62.82;100505.03;5103997;28;20453;-70
2022/08/25 05:03:58;;;;;;;7.10;5.18;;;;;;;19.96;62.76;100502.34;5103050;28;20609;-71
2022/08/25 05:06:25;;;;;;;6.18;4.75;;;;;;;19.99;62.59;100500.38;5103400;28;20052;-72
2022/08/25 05:08:52;;;;;;;7.50;4.85;;;;;;;20.04;62.58;100499.00;5104223;28;20051;-69
2022/08/25 05:11:19;;;;;;;7.10;5.40;;;;;;;20.11;62.72;100507.41;5102442;28;20052;-70
2022/08/25 05:13:51;;;;;;;8.40;5.07;;;;;;;20.01;62.84;100496.56;5102320;28;20052;-72
2022/08/25 05:16:20;;;;;;;9.30;5.43;;;;;;;20.01;62.84;100499.25;5105222;28;20086;-72
2022/08/25 05:18:48;;;;;;;6.63;4.93;;;;;;;20.02;63.58;100505.47;5100157;28;20054;-71
2022/08/25 05:21:18;;;;;;;7.53;5.00;;;;;;;20.00;63.38;100494.00;5103472;28;20043;-69
2022/08/25 05:23:46;;;;;;;9.20;5.60;;;;;;;20.04;63.60;100495.44;5100708;28;20109;-70
2022/08/25 05:26:22;;;;;;;6.90;5.25;;;;;;;20.05;63.20;100495.31;5104305;28;20419;-69
2022/08/25 05:28:53;;;;;;;9.73;5.82;;;;;;;19.96;63.52;100464.72;5082016;28;20612;-68
2022/08/25 05:31:21;;;;;;;6.75;5.70;;;;;;;20.05;63.63;100489.94;5088657;28;20204;-69
2022/08/25 05:33:51;;;;;;;6.13;5.53;;;;;;;20.04;63.89;100488.22;5098375;28;20584;-70
2022/08/25 05:36:19;;;;;;;7.88;5.57;;;;;;;20.05;64.17;100486.41;5107697;27;20043;-70
2022/08/25 05:38:46;;;;;;;7.38;5.90;;;;;;;20.04;64.54;100482.84;5098390;27;20046;-69
2022/08/25 05:41:15;;;;;;;7.90;5.90;;;;;;;20.12;64.62;100483.06;5103067;27;20100;-70
2022/08/25 05:43:44;;;;;;;8.73;5.87;;;;;;;20.15;64.67;100487.31;5101979;28;20089;-70
2022/08/25 05:46:11;;;;;;;9.13;5.60;;;;;;;20.03;64.32;100462.34;5108164;27;20039;-70
2022/08/25 05:48:38;;;;;;;10.95;6.25;;;;;;;20.13;64.55;100468.66;5085144;28;20044;-70
2022/08/25 05:51:11;;;;;;;6.95;5.53;;;;;;;20.21;64.62;100481.41;5097156;27;20071;-69
2022/08/25 05:53:41;;;;;;;11.55;6.35;;;;;;;20.29;64.49;100468.19;5102081;27;20696;-69
2022/08/25 05:56:09;;;;;;;9.70;6.13;;;;;;;20.35;64.36;100469.47;5101843;27;20130;-70
2022/08/25 05:58:36;;;;;;;9.43;6.32;;;;;;;20.39;64.32;100463.72;5107986;28;20067;-70
2022/08/25 06:03:53;;;;;;;11.85;6.82;;;;;;;20.53;63.93;100474.16;5097514;27;20047;-70
2022/08/25 06:06:23;;;;;;;7.40;6.57;;;;;;;20.37;64.06;100446.88;5101349;27;20055;-70
2022/08/25 06:08:50;;;;;;;8.35;6.43;;;;;;;20.47;64.15;100463.91;5103303;27;20533;-70
2022/08/25 06:11:17;;;;;;;9.48;6.60;;;;;;;20.61;64.02;100476.19;5097954;27;20043;-69
2022/08/25 06:13:44;;;;;;;11.13;7.68;;;;;;;20.70;63.72;100486.13;5101153;28;20116;-68
2022/08/25 06:16:11;;;;;;;10.73;7.28;;;;;;;20.77;64.03;100484.63;5101458;27;20071;-69
2022/08/25 06:18:38;;;;;;;9.60;6.40;;;;;;;20.82;63.59;100482.34;5098092;28;20052;-69
2022/08/25 06:21:13;;;;;;;10.60;6.40;;;;;;;20.96;63.73;100473.91;5094502;27;20075;-69
2022/08/25 06:23:40;;;;;;;11.32;7.60;;;;;;;20.95;63.42;100457.88;5101753;28;20556;-69
2022/08/25 06:26:10;;;;;;;10.23;7.13;;;;;;;21.18;63.69;100478.22;5097116;28;20552;-69
2022/08/25 06:28:46;;;;;;;11.77;7.85;;;;;;;21.27;62.81;100461.25;5093332;27;20052;-70
2022/08/25 06:31:12;;;;;;;9.15;6.72;;;;;;;21.51;61.98;100463.56;5095361;27;20097;-70
2022/08/25 06:33:39;;;;;;;10.15;7.50;;;;;;;21.63;61.76;100462.44;5102665;28;20040;-69
2022/08/25 06:36:07;;;;;;;12.25;7.50;;;;;;;21.86;61.21;100473.81;5100832;27;20078;-70
2022/08/25 06:38:34;;;;;;;12.82;7.68;;;;;;;22.22;59.89;100477.63;5086464;28;20073;-71
2022/08/25 06:41:05;;;;;;;11.85;7.82;;;;;;;22.45;59.38;100466.50;5104156;27;20448;-71
2022/08/25 06:43:32;;;;;;;17.08;7.65;;;;;;;22.52;58.74;100444.16;5096748;28;20048;-70
2022/08/25 06:46:15;;;;;;;21.13;8.18;;;;;;;22.92;58.61;100475.44;5103420;27;20130;-70
2022/08/25 06:48:42;;;;;;;12.00;7.70;;;;;;;23.17;57.77;100476.59;5100144;27;20044;-71
2022/08/25 06:51:11;;;;;;;12.88;7.88;;;;;;;23.41;56.88;100469.63;5100123;27;20544;-70
2022/08/25 06:53:40;;;;;;;8.80;7.72;;;;;;;23.57;56.66;100465.41;5098599;27;20176;-71
2022/08/25 06:56:07;;;;;;;10.60;8.02;;;;;;;23.89;55.46;100473.84;5098003;28;20065;-71
2022/08/25 06:58:34;;;;;;;10.25;7.65;;;;;;;24.15;54.26;100457.63;5098390;27;20055;-70
2022/08/25 07:01:14;;;;;;;12.43;8.07;;;;;;;24.25;53.38;100447.59;5090589;27;20222;-70
2022/08/25 07:03:46;;;;;;;10.82;8.13;;;;;;;24.44;54.61;100462.78;5099572;27;20074;-69
2022/08/25 07:06:14;;;;;;;13.57;8.32;;;;;;;24.48;53.51;100450.63;5098972;28;20080;-71
2022/08/25 07:08:45;;;;;;;14.82;7.82;;;;;;;24.63;53.22;100462.56;5086290;28;20158;-71
2022/08/25 07:11:13;;;;;;;11.70;7.85;;;;;;;24.80;53.46;100449.94;5093103;28;21837;-70
2022/08/25 07:13:44;;;;;;;10.90;7.55;;;;;;;25.15;52.54;100463.34;5101000;27;20143;-73
2022/08/25 07:16:10;;;;;;;12.98;7.80;;;;;;;25.31;52.64;100462.53;5094551;28;20087;-71
2022/08/25 07:18:37;;;;;;;11.40;7.75;;;;;;;25.47;51.65;100456.31;5097930;27;20069;-71
2022/08/25 07:21:04;;;;;;;11.80;7.78;;;;;;;25.47;51.70;100461.75;5096326;27;20047;-70
2022/08/25 07:23:34;;;;;;;;;;;;;;;25.70;51.31;100461.97;5096013;27;20555;-72
2022/08/25 07:26:13;;;;;;;12.32;8.13;;;;;;;25.68;49.74;100439.56;5097725;27;19968;-72
2022/08/25 07:29:03;;;;;;;14.45;8.43;;;;;;;25.83;49.94;100454.16;5096666;27;20407;-72
2022/08/25 07:31:31;;;;;;;12.93;8.15;;;;;;;25.94;49.99;100445.72;5095559;27;20043;-73
2022/08/25 07:36:45;;;;;;;13.73;8.15;;;;;;;26.33;48.73;100436.88;5091562;27;20131;-72
2022/08/25 07:39:12;;;;;;;14.40;8.05;;;;;;;26.49;49.60;100453.13;5098419;27;20071;-73
2022/08/25 07:41:40;;;;;;;10.48;7.88;;;;;;;26.66;49.78;100449.34;5091596;27;20048;-72
2022/08/25 07:44:09;;;;;;;13.23;7.75;;;;;;;26.92;48.02;100449.91;5087472;28;20602;-71
2022/08/25 07:46:36;;;;;;;9.98;8.20;;;;;;;26.85;48.34;100435.38;5092786;27;20079;-69
2022/08/25 07:49:04;;;;;;;13.35;7.70;;;;;;;26.97;47.50;100421.41;5092040;28;20144;-70
2022/08/25 07:51:42;;;;;;;12.15;8.20;;;;;;;27.01;48.06;100426.31;5098573;28;20044;-70
2022/08/25 07:54:30;;;;;;;9.30;7.45;;;;;;;27.33;47.98;100438.88;5095808;28;20523;-71
2022/08/25 07:57:00;;;;;;;10.95;8.23;;;;;;;27.62;46.23;100426.47;5095649;28;20509;-69
2022/08/25 07:59:26;;;;;;;11.05;8.25;;;;;;;27.98;45.51;100441.16;5094165;27;20067;-70
2022/08/25 08:01:53;;;;;;;10.05;8.13;;;;;;;28.24;46.14;100446.22;5106416;27;20407;-69
2022/08/25 08:04:21;;;;;;;9.50;7.70;;;;;;;28.23;45.03;100426.31;5098837;27;21046;-70
2022/08/25 08:06:47;;;;;;;8.63;7.60;;;;;;;28.47;45.44;100446.19;5104960;28;20601;-70
2022/08/25 08:09:15;;;;;;;10.52;7.55;;;;;;;28.63;44.20;100432.38;5100685;28;20043;-70
2022/08/25 08:11:43;;;;;;;10.10;8.00;;;;;;;28.58;45.07;100440.25;5096685;27;20067;-70
2022/08/25 08:14:21;;;;;;;9.82;7.63;;;;;;;28.67;45.27;100446.44;5095033;28;20517;-71
2022/08/25 08:16:48;;;;;;;10.45;8.55;;;;;;;28.54;43.99;100428.88;5097805;28;20059;-70
2022/08/25 08:19:15;;;;;;;13.60;8.73;;;;;;;28.36;44.81;100422.09;5092869;28;20496;-70
2022/08/25 08:21:42;;;;;;;11.43;8.23;;;;;;;28.45;44.30;100440.91;5093780;28;20059;-69
2022/08/25 08:24:09;;;;;;;9.25;8.15;;;;;;;28.46;44.70;100420.81;5093493;27;20103;-69
2022/08/25 08:26:56;;;;;;;9.18;8.18;;;;;;;28.61;43.69;100427.09;5098021;28;20525;-72
2022/08/25 08:29:25;;;;;;;19.83;8.77;;;;;;;28.57;44.85;100428.50;5099905;28;20040;-71
2022/08/25 08:31:52;;;;;;;16.08;8.38;;;;;;;28.26;44.83;100431.41;5102114;28;20123;-72
2022/08/25 08:34:19;;;;;;;10.57;7.90;;;;;;;28.21;45.20;100433.81;5091770;28;20130;-70
2022/08/25 08:36:50;;;;;;;12.15;8.23;;;;;;;28.25;45.03;100435.16;5105378;28;20063;-70
2022/08/25 08:39:17;;;;;;;10.35;8.15;;;;;;;28.31;44.89;100436.28;5099015;28;20609;-70
2022/08/25 08:44:45;;;;;;;9.25;7.40;;;;;;;28.41;44.81;100430.56;5097806;28;20071;-71
2022/08/25 08:47:26;;;;;;;10.85;7.63;;;;;;;28.52;44.22;100427.38;5100021;28;20078;-73
2022/08/25 08:50:18;;;;;;;9.23;7.68;;;;;;;28.63;44.13;100438.66;5096396;28;20043;-70
2022/08/25 08:53:18;;;;;;;8.73;7.47;;;;;;;28.87;43.05;100425.81;5090233;28;20109;-71
2022/08/25 08:56:05;;;;;;;9.40;7.50;;;;;;;29.07;42.80;100426.06;5092874;28;20059;-73
2022/08/25 08:59:01;;;;;;;17.70;9.20;;;;;;;29.24;42.11;100428.38;5094611;28;20690;-71
2022/08/25 09:01:56;;;;;;;8.68;7.28;;;;;;;29.15;42.75;100420.47;5101276;28;20035;-70
2022/08/25 09:04:37;;;;;;;10.13;7.25;;;;;;;28.98;43.01;100428.03;5095229;28;20084;-71
2022/08/25 09:07:11;;;;;;;11.02;7.28;;;;;;;28.79;43.36;100420.44;5107164;28;20407;-71
2022/08/25 09:09:41;;;;;;;8.32;6.90;;;;;;;28.58;43.28;100423.91;5096312;27;20071;-70
2022/08/25 09:12:34;;;;;;;10.35;7.22;;;;;;;28.28;43.79;100420.31;5096454;27;20152;-70
2022/08/25 09:15:08;;;;;;;12.25;7.05;;;;;;;28.11;43.93;100408.72;5099744;28;20571;-70
2022/08/25 09:17:58;;;;;;;14.50;6.75;;;;;;;27.86;44.41;100399.91;5097194;27;20059;-72
2022/08/25 09:20:54;;;;;;;8.20;7.28;;;;;;;27.99;44.09;100410.19;5094096;27;20483;-71
2022/08/25 09:23:32;;;;;;;10.00;7.00;;;;;;;27.95;43.78;100403.41;5101434;27;20915;-72
2022/08/25 09:26:26;;;;;;;6.72;6.13;;;;;;;27.92;43.39;100415.53;5087134;28;20122;-72
2022/08/25 09:29:09;;;;;;;8.57;6.50;;;;;;;27.90;43.30;100395.81;5102358;27;20079;-70
2022/08/25 09:31:43;;;;;;;8.27;6.68;;;;;;;27.90;43.49;100403.13;5111403;28;20051;-72
2022/08/25 09:34:23;;;;;;;8.32;6.80;;;;;;;27.94;43.66;100393.56;5101862;27;20104;-69
2022/08/25 09:36:51;;;;;;;7.78;6.72;;;;;;;27.98;43.47;100397.63;5104787;27;20477;-75
2022/08/25 09:39:19;;;;;;;7.57;6.88;;;;;;;27.89;43.69;100374.22;5098330;27;20042;-70
2022/08/25 09:41:49;;;;;;;8.00;6.80;;;;;;;28.04;42.96;100391.41;5099524;27;20434;-69
2022/08/25 09:44:23;;;;;;;7.57;6.65;;;;;;;28.03;42.90;100384.28;5093989;28;20044;-69
2022/08/25 09:47:00;;;;;;;8.43;6.82;;;;;;;28.08;43.18;100387.28;5086353;27;20093;-71
2022/08/25 09:49:38;;;;;;;7.43;6.60;;;;;;;28.21;42.96;100379.38;5100838;27;20120;-70
2022/08/25 09:52:24;;;;;;;8.77;7.80;;;;;;;28.18;42.38;100370.69;5107317;27;20048;-69
2022/08/25 09:54:52;;;;;;;7.40;6.68;;;;;;;28.20;42.88;100364.06;5109022;27;20477;-72
2022/08/25 09:57:35;;;;;;;9.63;7.32;;;;;;;28.25;43.13;100358.91;5113226;28;20361;-69
2022/08/25 10:00:12;;;;;;;10.77;7.05;;;;;;;28.36;43.02;100356.72;5081948;27;20112;-69
2022/08/25 10:02:41;;;;;;;10.65;7.28;;;;;;;28.38;42.50;100360.13;5102508;28;20108;-68
2022/08/25 10:05:19;;;;;;;9.27;7.40;;;;;;;28.42;42.29;100340.50;5104064;27;20046;-73
2022/08/25 10:08:08;;;;;;;9.50;7.30;;;;;;;28.55;42.35;100340.66;5101793;27;20602;-72
2022/08/25 10:10:42;;;;;;;8.63;7.25;;;;;;;28.60;43.00;100340.09;5102896;28;20517;-69
2022/08/25 10:13:19;;;;;;;7.97;6.85;;;;;;;28.69;42.77;100330.78;5104900;27;20039;-70
2022/08/25 10:16:24;;;;;;;8.00;7.20;;;;;;;28.81;41.86;100333.88;5100432;27;20500;-70
2022/08/25 10:19:11;;;;;;;8.57;7.68;;;;;;;28.93;41.46;100335.94;5098770;27;20046;-71
2022/08/25 10:21:41;;;;;;;8.95;7.43;;;;;;;28.83;41.80;100329.94;5103062;28;20113;-71
2022/08/25 10:24:12;;;;;;;10.13;7.65;;;;;;;28.84;41.74;100323.44;5105629;28;20158;-71
2022/08/25 10:27:00;;;;;;;8.30;6.90;;;;;;;28.95;42.13;100322.97;5109087;27;20043;-71
2022/08/25 10:29:54;;;;;;;10.35;7.25;;;;;;;29.14;41.14;100302.38;5106273;27;20584;-68
2022/08/25 10:33:10;;;;;;;8.18;6.28;;;;;;;29.33;40.29;100300.88;5106856;28;20097;-69
2022/08/25 10:36:03;;;;;;;7.63;6.82;;;;;;;29.47;39.85;100291.81;5090985;28;20059;-69
2022/08/25 10:38:38;;;;;;;8.10;6.78;;;;;;;29.42;40.20;100272.47;5105767;28;20116;-69
2022/08/25 10:41:29;;;;;;;11.13;7.22;;;;;;;29.29;40.51;100294.13;5108439;28;20057;-70
2022/08/25 10:47:42;;;;;;;8.35;7.18;;;;;;;28.77;42.10;100281.63;5107720;28;20115;-69
2022/08/25 10:50:29;;;;;;;9.20;7.50;;;;;;;28.63;41.88;100283.38;5105977;27;20532;-73
2022/08/25 10:53:14;;;;;;;10.82;7.80;;;;;;;28.48;43.02;100284.44;5106491;27;20556;-70
2022/08/25 10:55:54;;;;;;;8.40;7.60;;;;;;;28.67;42.22;100278.34;5104663;28;20454;-71
2022/08/25 10:58:34;;;;;;;11.60;7.40;;;;;;;28.92;41.91;100271.56;5103024;28;20071;-68
2022/08/25 11:01:16;;;;;;;8.70;7.05;;;;;;;29.14;40.80;100258.75;5102816;27;20040;-70
2022/08/25 11:03:57;;;;;;;8.73;7.03;;;;;;;29.49;39.77;100267.91;5104615;28;20074;-72
2022/08/25 11:06:46;;;;;;;7.93;5.95;;;;;;;29.73;38.85;100263.06;5105888;28;20054;-68
2022/08/25 11:09:29;;;;;;;7.72;6.63;;;;;;;29.76;38.92;100262.63;5111368;27;20458;-70
2022/08/25 11:12:01;;;;;;;10.52;6.28;;;;;;;29.82;39.27;100261.84;5103818;27;20051;-69
2022/08/25 11:14:31;;;;;;;7.53;6.70;;;;;;;29.91;39.38;100269.66;5090762;28;20051;-70
2022/08/25 11:17:16;;;;;;;9.10;6.25;;;;;;;29.87;38.82;100245.72;5106823;27;20039;-68
2022/08/25 11:19:49;;;;;;;8.60;6.32;;;;;;;29.86;38.94;100266.72;5106027;27;20075;-70
2022/08/25 11:22:28;;;;;;;9.65;6.47;;;;;;;29.94;38.48;100265.69;5107200;28;20086;-70
2022/08/25 11:25:19;;;;;;;6.95;6.15;;;;;;;30.03;38.01;100263.69;5106893;28;20048;-70
2022/08/25 11:28:02;;;;;;;8.05;6.15;;;;;;;30.08;38.00;100255.72;5100139;27;20054;-70
2022/08/25 11:30:29;;;;;;;6.90;5.95;;;;;;;29.93;37.89;100258.56;5106680;27;20104;-70
2022/08/25 11:32:57;;;;;;;7.82;6.40;;;;;;;29.75;38.64;100250.88;5107133;28;20047;-69
2022/08/25 11:35:35;;;;;;;7.82;6.25;;;;;;;29.57;38.53;100240.50;5106255;28;20060;-67
2022/08/25 11:38:15;;;;;;;7.60;6.45;;;;;;;29.55;39.07;100234.38;5108602;27;20537;-69
2022/08/25 11:40:59;;;;;;;7.38;6.53;;;;;;;29.85;38.40;100254.09;5106810;28;20056;-69
2022/08/25 11:43:47;;;;;;;8.15;6.25;;;;;;;30.25;38.25;100252.47;5107342;27;20126;-70
2022/08/25 11:46:35;;;;;;;10.23;6.45;;;;;;;30.60;37.25;100242.34;5102261;27;20056;-69
2022/08/25 11:49:22;;;;;;;7.10;6.40;;;;;;;30.94;37.22;100230.44;5099990;28;20050;-67
2022/08/25 11:51:50;;;;;;;8.18;6.40;;;;;;;31.29;36.46;100233.84;5105692;28;20044;-70
2022/08/25 11:54:26;;;;;;;6.75;5.25;;;;;;;31.57;34.26;100232.78;5110096;27;20074;-70
2022/08/25 11:57:15;;;;;;;5.93;5.22;;;;;;;31.43;34.26;100239.31;5103582;28;20059;-70
2022/08/25 11:59:54;;;;;;;6.38;5.30;;;;;;;31.14;34.67;100251.53;5103479;27;20040;-71
2022/08/25 12:02:33;;;;;;;6.93;5.18;;;;;;;30.85;34.77;100250.78;5108371;27;20054;-71